KARW

Beaufort County Airport

Beaufort, South Carolina, USA
METAR KARW 211255Z AUTO 00000KT 2SM BR CLR 18/18 A3045 RMK AO2
Observed Flight Rules
Feb-21 @ 12:55 UTC (26 minutes ago) Instrument Flight Rules
Wind Visibility Clouds Conditions
Calm 2 miles
  • Clear skies
  • Mist
Temperatures Readings
Current 18°C / 64°F
Dewpoint 18°C / 64°F
Humidity 100%
Altimeter 30.45" Hg
Pressure 1031 hPa
Elevation 4
METAR KARW 211255Z AUTO 00000KT 2SM BR CLR 18/18 A3045 RMK AO2
Observed Flight Rules
Feb-21 @ 12:55 UTC
(26 minutes ago)
IFR
Wind Visibility
Calm 2 miles
Clouds
  • Clear skies
Conditions
  • Mist
Temperature Dewpoint
18°C / 64°F 18°C / 64°F
Humidity Altimeter Pressure
100% 30.45" Hg 1031 hPa